sensor_id;sensor_type;location;lat;lon;timestamp;P1;durP1;ratioP1;P2;durP2;ratioP2
37349;SDS011;23231;52.358;4.926;2023-03-25T00:03:49;26.30;;;4.00;;
37349;SDS011;23231;52.358;4.926;2023-03-25T00:08:52;14.70;;;2.88;;
37349;SDS011;23231;52.358;4.926;2023-03-25T00:13:53;13.38;;;3.08;;
37349;SDS011;23231;52.358;4.926;2023-03-25T00:18:53;23.08;;;4.05;;
37349;SDS011;23231;52.358;4.926;2023-03-25T00:23:54;24.27;;;3.63;;
37349;SDS011;23231;52.358;4.926;2023-03-25T00:28:55;15.68;;;3.15;;
37349;SDS011;23231;52.358;4.926;2023-03-25T00:33:55;21.92;;;3.53;;
37349;SDS011;23231;52.358;4.926;2023-03-25T00:38:57;18.35;;;3.08;;
37349;SDS011;23231;52.358;4.926;2023-03-25T00:43:57;20.83;;;3.25;;
37349;SDS011;23231;52.358;4.926;2023-03-25T00:48:58;21.48;;;3.55;;
37349;SDS011;23231;52.358;4.926;2023-03-25T00:53:59;22.95;;;3.28;;
37349;SDS011;23231;52.358;4.926;2023-03-25T00:59:00;17.60;;;2.83;;
37349;SDS011;23231;52.358;4.926;2023-03-25T01:04:00;18.05;;;3.20;;
37349;SDS011;23231;52.358;4.926;2023-03-25T01:09:02;15.85;;;2.58;;
37349;SDS011;23231;52.358;4.926;2023-03-25T01:14:06;17.85;;;3.65;;
37349;SDS011;23231;52.358;4.926;2023-03-25T01:19:10;18.42;;;3.50;;
37349;SDS011;23231;52.358;4.926;2023-03-25T01:24:11;20.23;;;3.10;;
37349;SDS011;23231;52.358;4.926;2023-03-25T01:29:14;15.23;;;3.03;;
37349;SDS011;23231;52.358;4.926;2023-03-25T01:34:15;20.27;;;3.22;;
37349;SDS011;23231;52.358;4.926;2023-03-25T01:39:17;23.02;;;3.65;;
37349;SDS011;23231;52.358;4.926;2023-03-25T01:49:22;20.10;;;3.53;;
37349;SDS011;23231;52.358;4.926;2023-03-25T01:54:24;13.77;;;3.17;;
37349;SDS011;23231;52.358;4.926;2023-03-25T01:59:26;22.40;;;3.35;;
37349;SDS011;23231;52.358;4.926;2023-03-25T02:04:36;17.33;;;3.97;;
37349;SDS011;23231;52.358;4.926;2023-03-25T02:09:43;15.75;;;3.05;;
37349;SDS011;23231;52.358;4.926;2023-03-25T02:14:43;16.60;;;3.65;;
37349;SDS011;23231;52.358;4.926;2023-03-25T02:19:51;22.70;;;3.45;;
37349;SDS011;23231;52.358;4.926;2023-03-25T02:30:29;22.95;;;3.65;;
37349;SDS011;23231;52.358;4.926;2023-03-25T02:41:13;17.27;;;4.07;;
37349;SDS011;23231;52.358;4.926;2023-03-25T02:46:18;18.73;;;3.30;;
37349;SDS011;23231;52.358;4.926;2023-03-25T02:51:21;17.30;;;3.35;;
37349;SDS011;23231;52.358;4.926;2023-03-25T02:56:33;26.33;;;3.80;;
37349;SDS011;23231;52.358;4.926;2023-03-25T03:01:34;21.85;;;3.65;;
37349;SDS011;23231;52.358;4.926;2023-03-25T03:06:37;21.13;;;3.38;;
37349;SDS011;23231;52.358;4.926;2023-03-25T03:22:52;25.38;;;3.90;;
37349;SDS011;23231;52.358;4.926;2023-03-25T03:32:46;30.60;;;4.90;;
37349;SDS011;23231;52.358;4.926;2023-03-25T03:37:59;27.73;;;4.55;;
37349;SDS011;23231;52.358;4.926;2023-03-25T03:43:06;29.13;;;5.10;;
37349;SDS011;23231;52.358;4.926;2023-03-25T03:48:14;29.65;;;4.90;;
37349;SDS011;23231;52.358;4.926;2023-03-25T03:53:40;23.73;;;4.25;;
37349;SDS011;23231;52.358;4.926;2023-03-25T03:58:42;28.60;;;4.13;;
37349;SDS011;23231;52.358;4.926;2023-03-25T04:03:49;25.92;;;4.25;;
37349;SDS011;23231;52.358;4.926;2023-03-25T04:08:59;32.15;;;5.22;;
37349;SDS011;23231;52.358;4.926;2023-03-25T04:14:04;27.15;;;4.32;;
37349;SDS011;23231;52.358;4.926;2023-03-25T04:19:05;21.00;;;3.22;;
37349;SDS011;23231;52.358;4.926;2023-03-25T04:24:05;21.60;;;3.42;;
37349;SDS011;23231;52.358;4.926;2023-03-25T04:29:07;20.30;;;3.20;;
37349;SDS011;23231;52.358;4.926;2023-03-25T04:34:08;27.65;;;3.53;;
37349;SDS011;23231;52.358;4.926;2023-03-25T04:39:09;24.15;;;4.20;;
37349;SDS011;23231;52.358;4.926;2023-03-25T04:44:10;20.83;;;4.05;;
37349;SDS011;23231;52.358;4.926;2023-03-25T04:49:21;28.83;;;4.30;;
37349;SDS011;23231;52.358;4.926;2023-03-25T04:54:22;25.80;;;3.63;;
37349;SDS011;23231;52.358;4.926;2023-03-25T04:59:22;14.85;;;2.53;;
37349;SDS011;23231;52.358;4.926;2023-03-25T05:04:23;18.50;;;3.17;;
37349;SDS011;23231;52.358;4.926;2023-03-25T05:09:23;20.48;;;3.20;;
37349;SDS011;23231;52.358;4.926;2023-03-25T05:14:24;21.70;;;3.25;;
37349;SDS011;23231;52.358;4.926;2023-03-25T05:19:24;19.70;;;3.70;;
37349;SDS011;23231;52.358;4.926;2023-03-25T05:24:26;17.27;;;2.97;;
37349;SDS011;23231;52.358;4.926;2023-03-25T05:29:28;21.75;;;3.55;;
37349;SDS011;23231;52.358;4.926;2023-03-25T05:34:32;19.83;;;3.55;;
37349;SDS011;23231;52.358;4.926;2023-03-25T05:39:33;27.17;;;3.55;;
37349;SDS011;23231;52.358;4.926;2023-03-25T05:44:33;24.00;;;3.42;;
37349;SDS011;23231;52.358;4.926;2023-03-25T05:49:34;23.15;;;4.22;;
37349;SDS011;23231;52.358;4.926;2023-03-25T05:54:34;18.67;;;2.92;;
37349;SDS011;23231;52.358;4.926;2023-03-25T05:59:40;18.70;;;3.30;;
37349;SDS011;23231;52.358;4.926;2023-03-25T06:04:41;19.55;;;3.85;;
37349;SDS011;23231;52.358;4.926;2023-03-25T06:09:42;18.23;;;3.20;;
37349;SDS011;23231;52.358;4.926;2023-03-25T06:14:46;21.27;;;3.35;;
37349;SDS011;23231;52.358;4.926;2023-03-25T06:19:47;19.52;;;3.80;;
37349;SDS011;23231;52.358;4.926;2023-03-25T06:24:51;23.75;;;3.38;;
37349;SDS011;23231;52.358;4.926;2023-03-25T06:29:52;20.33;;;3.60;;
37349;SDS011;23231;52.358;4.926;2023-03-25T06:34:52;21.13;;;3.25;;
37349;SDS011;23231;52.358;4.926;2023-03-25T06:39:53;16.50;;;3.10;;
37349;SDS011;23231;52.358;4.926;2023-03-25T06:44:55;17.92;;;3.30;;
37349;SDS011;23231;52.358;4.926;2023-03-25T06:49:55;17.08;;;2.63;;
37349;SDS011;23231;52.358;4.926;2023-03-25T06:54:56;24.52;;;3.40;;
37349;SDS011;23231;52.358;4.926;2023-03-25T06:59:56;21.13;;;3.95;;
37349;SDS011;23231;52.358;4.926;2023-03-25T07:04:57;22.77;;;3.22;;
37349;SDS011;23231;52.358;4.926;2023-03-25T07:09:57;22.05;;;3.42;;
37349;SDS011;23231;52.358;4.926;2023-03-25T07:14:58;21.85;;;2.92;;
37349;SDS011;23231;52.358;4.926;2023-03-25T07:19:58;17.83;;;3.90;;
37349;SDS011;23231;52.358;4.926;2023-03-25T07:24:59;27.90;;;3.80;;
37349;SDS011;23231;52.358;4.926;2023-03-25T07:29:59;22.10;;;3.08;;
37349;SDS011;23231;52.358;4.926;2023-03-25T07:35:00;15.15;;;3.03;;
37349;SDS011;23231;52.358;4.926;2023-03-25T07:40:00;15.18;;;3.38;;
37349;SDS011;23231;52.358;4.926;2023-03-25T07:45:01;14.48;;;2.58;;
37349;SDS011;23231;52.358;4.926;2023-03-25T07:50:01;20.00;;;2.92;;
37349;SDS011;23231;52.358;4.926;2023-03-25T07:55:02;18.95;;;3.80;;
37349;SDS011;23231;52.358;4.926;2023-03-25T08:00:03;21.92;;;2.90;;
37349;SDS011;23231;52.358;4.926;2023-03-25T08:05:06;18.95;;;3.72;;
37349;SDS011;23231;52.358;4.926;2023-03-25T08:10:07;20.60;;;4.25;;
37349;SDS011;23231;52.358;4.926;2023-03-25T08:15:08;16.38;;;3.58;;
37349;SDS011;23231;52.358;4.926;2023-03-25T08:20:10;22.25;;;3.65;;
37349;SDS011;23231;52.358;4.926;2023-03-25T08:25:12;20.02;;;3.30;;
37349;SDS011;23231;52.358;4.926;2023-03-25T08:30:13;19.23;;;2.67;;
37349;SDS011;23231;52.358;4.926;2023-03-25T08:35:15;16.48;;;2.78;;
37349;SDS011;23231;52.358;4.926;2023-03-25T08:40:18;19.77;;;3.20;;
37349;SDS011;23231;52.358;4.926;2023-03-25T08:45:18;16.73;;;3.28;;
37349;SDS011;23231;52.358;4.926;2023-03-25T08:50:19;18.17;;;3.67;;
37349;SDS011;23231;52.358;4.926;2023-03-25T08:55:20;21.23;;;3.38;;
37349;SDS011;23231;52.358;4.926;2023-03-25T09:00:20;23.27;;;2.88;;
37349;SDS011;23231;52.358;4.926;2023-03-25T09:05:23;16.00;;;2.80;;
37349;SDS011;23231;52.358;4.926;2023-03-25T09:10:23;19.52;;;3.30;;
37349;SDS011;23231;52.358;4.926;2023-03-25T09:15:24;17.98;;;3.28;;
37349;SDS011;23231;52.358;4.926;2023-03-25T09:20:25;19.88;;;4.43;;
37349;SDS011;23231;52.358;4.926;2023-03-25T09:25:26;16.95;;;3.63;;
37349;SDS011;23231;52.358;4.926;2023-03-25T09:30:27;20.00;;;3.15;;
37349;SDS011;23231;52.358;4.926;2023-03-25T09:35:27;18.65;;;2.95;;
37349;SDS011;23231;52.358;4.926;2023-03-25T09:40:28;20.00;;;3.78;;
37349;SDS011;23231;52.358;4.926;2023-03-25T09:45:44;23.77;;;3.47;;
37349;SDS011;23231;52.358;4.926;2023-03-25T09:50:49;11.27;;;2.50;;
37349;SDS011;23231;52.358;4.926;2023-03-25T09:55:49;22.15;;;3.65;;
37349;SDS011;23231;52.358;4.926;2023-03-25T10:01:02;18.27;;;4.10;;
37349;SDS011;23231;52.358;4.926;2023-03-25T10:11:11;18.15;;;4.03;;
37349;SDS011;23231;52.358;4.926;2023-03-25T10:21:38;22.80;;;3.38;;
37349;SDS011;23231;52.358;4.926;2023-03-25T10:26:49;20.77;;;3.60;;
37349;SDS011;23231;52.358;4.926;2023-03-25T10:31:52;21.00;;;3.22;;
37349;SDS011;23231;52.358;4.926;2023-03-25T10:36:54;14.65;;;2.95;;
37349;SDS011;23231;52.358;4.926;2023-03-25T10:42:03;17.80;;;3.28;;
37349;SDS011;23231;52.358;4.926;2023-03-25T10:47:11;16.45;;;3.50;;
37349;SDS011;23231;52.358;4.926;2023-03-25T10:52:15;18.67;;;3.10;;
37349;SDS011;23231;52.358;4.926;2023-03-25T10:57:20;20.67;;;2.95;;
37349;SDS011;23231;52.358;4.926;2023-03-25T11:02:26;15.30;;;3.67;;
37349;SDS011;23231;52.358;4.926;2023-03-25T11:07:30;19.40;;;3.58;;
37349;SDS011;23231;52.358;4.926;2023-03-25T11:12:32;18.15;;;3.55;;
37349;SDS011;23231;52.358;4.926;2023-03-25T11:17:33;16.48;;;2.83;;
37349;SDS011;23231;52.358;4.926;2023-03-25T11:22:35;19.80;;;3.30;;
37349;SDS011;23231;52.358;4.926;2023-03-25T11:27:40;21.65;;;2.95;;
37349;SDS011;23231;52.358;4.926;2023-03-25T11:33:03;17.30;;;3.65;;
37349;SDS011;23231;52.358;4.926;2023-03-25T11:38:13;21.95;;;3.70;;
37349;SDS011;23231;52.358;4.926;2023-03-25T11:43:17;14.30;;;3.20;;
37349;SDS011;23231;52.358;4.926;2023-03-25T11:48:23;17.95;;;2.90;;
37349;SDS011;23231;52.358;4.926;2023-03-25T11:53:41;18.77;;;3.30;;
37349;SDS011;23231;52.358;4.926;2023-03-25T11:58:43;15.70;;;3.08;;
37349;SDS011;23231;52.358;4.926;2023-03-25T12:03:44;22.95;;;4.70;;
37349;SDS011;23231;52.358;4.926;2023-03-25T12:25:01;16.70;;;3.00;;
37349;SDS011;23231;52.358;4.926;2023-03-25T12:46:19;15.13;;;2.97;;
37349;SDS011;23231;52.358;4.926;2023-03-25T12:56:45;11.50;;;2.72;;
37349;SDS011;23231;52.358;4.926;2023-03-25T13:07:17;15.15;;;2.50;;
37349;SDS011;23231;52.358;4.926;2023-03-25T13:12:37;13.98;;;2.47;;
37349;SDS011;23231;52.358;4.926;2023-03-25T13:17:42;14.73;;;2.60;;
37349;SDS011;23231;52.358;4.926;2023-03-25T13:22:46;13.23;;;2.40;;
37349;SDS011;23231;52.358;4.926;2023-03-25T13:27:50;17.35;;;2.88;;
37349;SDS011;23231;52.358;4.926;2023-03-25T13:32:53;10.00;;;2.72;;
37349;SDS011;23231;52.358;4.926;2023-03-25T13:37:58;10.15;;;2.13;;
37349;SDS011;23231;52.358;4.926;2023-03-25T13:48:26;14.85;;;2.47;;
37349;SDS011;23231;52.358;4.926;2023-03-25T14:15:05;11.55;;;1.88;;
37349;SDS011;23231;52.358;4.926;2023-03-25T14:20:11;11.13;;;2.13;;
37349;SDS011;23231;52.358;4.926;2023-03-25T14:25:18;14.15;;;2.60;;
37349;SDS011;23231;52.358;4.926;2023-03-25T14:30:21;12.13;;;2.35;;
37349;SDS011;23231;52.358;4.926;2023-03-25T14:56:18;10.48;;;2.05;;
37349;SDS011;23231;52.358;4.926;2023-03-25T15:01:23;4.80;;;1.55;;
37349;SDS011;23231;52.358;4.926;2023-03-25T15:06:33;6.63;;;1.60;;
37349;SDS011;23231;52.358;4.926;2023-03-25T15:11:34;6.10;;;1.35;;
37349;SDS011;23231;52.358;4.926;2023-03-25T15:16:37;6.55;;;1.60;;
37349;SDS011;23231;52.358;4.926;2023-03-25T15:27:07;11.10;;;2.05;;
37349;SDS011;23231;52.358;4.926;2023-03-25T15:58:56;7.05;;;1.88;;
37349;SDS011;23231;52.358;4.926;2023-03-25T16:04:15;9.68;;;2.08;;
37349;SDS011;23231;52.358;4.926;2023-03-25T16:09:25;5.55;;;1.60;;
37349;SDS011;23231;52.358;4.926;2023-03-25T16:14:30;11.27;;;1.80;;
37349;SDS011;23231;52.358;4.926;2023-03-25T16:19:45;13.33;;;2.27;;
37349;SDS011;23231;52.358;4.926;2023-03-25T16:24:50;6.60;;;1.52;;
37349;SDS011;23231;52.358;4.926;2023-03-25T16:29:52;16.67;;;2.17;;
37349;SDS011;23231;52.358;4.926;2023-03-25T16:34:53;17.65;;;2.70;;
37349;SDS011;23231;52.358;4.926;2023-03-25T16:39:54;9.15;;;2.67;;
37349;SDS011;23231;52.358;4.926;2023-03-25T16:44:55;9.00;;;2.67;;
37349;SDS011;23231;52.358;4.926;2023-03-25T16:49:56;8.88;;;2.70;;
37349;SDS011;23231;52.358;4.926;2023-03-25T17:00:19;13.02;;;3.13;;
37349;SDS011;23231;52.358;4.926;2023-03-25T17:05:22;9.70;;;1.67;;
37349;SDS011;23231;52.358;4.926;2023-03-25T17:10:26;6.45;;;2.22;;
37349;SDS011;23231;52.358;4.926;2023-03-25T17:15:27;8.82;;;1.98;;
37349;SDS011;23231;52.358;4.926;2023-03-25T17:20:34;8.02;;;2.15;;
37349;SDS011;23231;52.358;4.926;2023-03-25T17:30:55;12.20;;;2.47;;
37349;SDS011;23231;52.358;4.926;2023-03-25T17:35:56;11.68;;;2.40;;
37349;SDS011;23231;52.358;4.926;2023-03-25T17:41:03;5.50;;;1.85;;
37349;SDS011;23231;52.358;4.926;2023-03-25T17:46:08;7.03;;;2.20;;
37349;SDS011;23231;52.358;4.926;2023-03-25T17:51:09;10.52;;;2.65;;
37349;SDS011;23231;52.358;4.926;2023-03-25T17:56:10;11.40;;;2.70;;
37349;SDS011;23231;52.358;4.926;2023-03-25T18:01:12;10.40;;;3.42;;
37349;SDS011;23231;52.358;4.926;2023-03-25T18:06:12;8.57;;;2.67;;
37349;SDS011;23231;52.358;4.926;2023-03-25T18:11:13;6.53;;;2.00;;
37349;SDS011;23231;52.358;4.926;2023-03-25T18:16:15;6.90;;;2.30;;
37349;SDS011;23231;52.358;4.926;2023-03-25T18:21:16;6.57;;;1.92;;
37349;SDS011;23231;52.358;4.926;2023-03-25T18:26:18;6.95;;;2.05;;
37349;SDS011;23231;52.358;4.926;2023-03-25T18:31:18;9.85;;;2.85;;
37349;SDS011;23231;52.358;4.926;2023-03-25T18:36:21;7.13;;;2.65;;
37349;SDS011;23231;52.358;4.926;2023-03-25T18:41:21;7.53;;;2.75;;
37349;SDS011;23231;52.358;4.926;2023-03-25T18:46:23;12.65;;;3.40;;
37349;SDS011;23231;52.358;4.926;2023-03-25T18:51:23;9.60;;;2.42;;
37349;SDS011;23231;52.358;4.926;2023-03-25T18:56:24;8.25;;;2.80;;
37349;SDS011;23231;52.358;4.926;2023-03-25T19:01:25;9.70;;;3.88;;
37349;SDS011;23231;52.358;4.926;2023-03-25T19:06:25;9.40;;;2.88;;
37349;SDS011;23231;52.358;4.926;2023-03-25T19:11:27;10.77;;;2.72;;
37349;SDS011;23231;52.358;4.926;2023-03-25T19:16:29;12.57;;;2.67;;
37349;SDS011;23231;52.358;4.926;2023-03-25T19:21:30;8.05;;;2.90;;
37349;SDS011;23231;52.358;4.926;2023-03-25T19:26:30;11.38;;;2.60;;
37349;SDS011;23231;52.358;4.926;2023-03-25T19:31:30;12.48;;;2.92;;
37349;SDS011;23231;52.358;4.926;2023-03-25T19:36:31;8.93;;;2.85;;
37349;SDS011;23231;52.358;4.926;2023-03-25T19:41:33;10.30;;;2.70;;
37349;SDS011;23231;52.358;4.926;2023-03-25T19:46:41;9.52;;;2.83;;
37349;SDS011;23231;52.358;4.926;2023-03-25T19:51:41;13.20;;;3.30;;
37349;SDS011;23231;52.358;4.926;2023-03-25T19:56:44;17.48;;;3.85;;
37349;SDS011;23231;52.358;4.926;2023-03-25T20:01:44;11.95;;;3.47;;
37349;SDS011;23231;52.358;4.926;2023-03-25T20:06:44;10.93;;;2.97;;
37349;SDS011;23231;52.358;4.926;2023-03-25T20:11:45;15.38;;;3.00;;
37349;SDS011;23231;52.358;4.926;2023-03-25T20:16:46;14.77;;;3.22;;
37349;SDS011;23231;52.358;4.926;2023-03-25T20:21:47;11.80;;;3.67;;
37349;SDS011;23231;52.358;4.926;2023-03-25T20:26:47;12.18;;;3.65;;
37349;SDS011;23231;52.358;4.926;2023-03-25T20:31:48;13.30;;;3.05;;
37349;SDS011;23231;52.358;4.926;2023-03-25T20:36:48;11.75;;;3.72;;
37349;SDS011;23231;52.358;4.926;2023-03-25T20:41:49;14.20;;;2.50;;
37349;SDS011;23231;52.358;4.926;2023-03-25T20:46:50;14.13;;;2.97;;
37349;SDS011;23231;52.358;4.926;2023-03-25T20:51:51;12.30;;;2.40;;
37349;SDS011;23231;52.358;4.926;2023-03-25T20:56:53;15.20;;;3.17;;
37349;SDS011;23231;52.358;4.926;2023-03-25T21:01:53;10.90;;;2.80;;
37349;SDS011;23231;52.358;4.926;2023-03-25T21:06:54;14.02;;;3.03;;
37349;SDS011;23231;52.358;4.926;2023-03-25T21:11:54;11.00;;;2.50;;
37349;SDS011;23231;52.358;4.926;2023-03-25T21:16:55;8.77;;;2.25;;
37349;SDS011;23231;52.358;4.926;2023-03-25T21:21:56;8.40;;;2.92;;
37349;SDS011;23231;52.358;4.926;2023-03-25T21:26:57;10.85;;;2.92;;
37349;SDS011;23231;52.358;4.926;2023-03-25T21:31:57;10.68;;;2.67;;
37349;SDS011;23231;52.358;4.926;2023-03-25T21:36:57;13.15;;;3.35;;
37349;SDS011;23231;52.358;4.926;2023-03-25T21:41:59;13.52;;;2.90;;
37349;SDS011;23231;52.358;4.926;2023-03-25T21:47:00;12.00;;;2.83;;
37349;SDS011;23231;52.358;4.926;2023-03-25T21:52:05;10.73;;;3.07;;
37349;SDS011;23231;52.358;4.926;2023-03-25T21:57:11;15.07;;;3.22;;
37349;SDS011;23231;52.358;4.926;2023-03-25T22:02:12;7.93;;;2.80;;
37349;SDS011;23231;52.358;4.926;2023-03-25T22:07:16;18.80;;;2.90;;
37349;SDS011;23231;52.358;4.926;2023-03-25T22:12:16;13.55;;;3.10;;
37349;SDS011;23231;52.358;4.926;2023-03-25T22:17:16;12.90;;;3.03;;
37349;SDS011;23231;52.358;4.926;2023-03-25T22:22:18;20.50;;;3.35;;
37349;SDS011;23231;52.358;4.926;2023-03-25T22:27:20;13.27;;;3.50;;
37349;SDS011;23231;52.358;4.926;2023-03-25T22:32:21;14.93;;;3.10;;
37349;SDS011;23231;52.358;4.926;2023-03-25T22:37:23;11.02;;;2.78;;
37349;SDS011;23231;52.358;4.926;2023-03-25T22:42:23;12.75;;;2.95;;
37349;SDS011;23231;52.358;4.926;2023-03-25T22:47:24;16.00;;;3.42;;
37349;SDS011;23231;52.358;4.926;2023-03-25T22:52:25;21.35;;;3.50;;
37349;SDS011;23231;52.358;4.926;2023-03-25T22:57:25;14.60;;;2.70;;
37349;SDS011;23231;52.358;4.926;2023-03-25T23:02:26;13.07;;;3.53;;
37349;SDS011;23231;52.358;4.926;2023-03-25T23:07:26;10.63;;;3.08;;
37349;SDS011;23231;52.358;4.926;2023-03-25T23:12:33;12.35;;;2.92;;
37349;SDS011;23231;52.358;4.926;2023-03-25T23:17:33;13.52;;;3.17;;
37349;SDS011;23231;52.358;4.926;2023-03-25T23:22:34;12.60;;;2.70;;
37349;SDS011;23231;52.358;4.926;2023-03-25T23:27:34;12.25;;;3.00;;
37349;SDS011;23231;52.358;4.926;2023-03-25T23:32:35;16.73;;;4.07;;
37349;SDS011;23231;52.358;4.926;2023-03-25T23:37:35;18.17;;;2.70;;
37349;SDS011;23231;52.358;4.926;2023-03-25T23:42:36;10.38;;;2.75;;
37349;SDS011;23231;52.358;4.926;2023-03-25T23:47:36;12.90;;;2.67;;
37349;SDS011;23231;52.358;4.926;2023-03-25T23:52:36;11.23;;;2.70;;
37349;SDS011;23231;52.358;4.926;2023-03-25T23:57:37;11.90;;;3.08;;
